createdAt,value
2023-01-26T00:01:24.015Z,11.48
2023-01-26T00:03:51.540Z,9.02
2023-01-26T00:06:21.158Z,9.43
2023-01-26T00:08:51.096Z,9.65
2023-01-26T00:11:24.355Z,11.68
2023-01-26T00:13:51.746Z,9.15
2023-01-26T00:16:19.092Z,8.63
2023-01-26T03:29:59.641Z,8.55
2023-01-26T03:32:27.111Z,8.10
2023-01-26T03:34:56.233Z,7.78
2023-01-26T03:37:26.681Z,7.55
2023-01-26T03:40:22.728Z,6.93
2023-01-26T03:43:09.497Z,8.52
2023-01-26T03:45:55.645Z,6.93
2023-01-26T03:48:44.250Z,7.28
2023-01-26T03:51:29.977Z,7.78
2023-01-26T03:54:16.855Z,7.78
2023-01-26T03:56:44.715Z,7.65
2023-01-26T03:59:21.110Z,6.93
2023-01-26T04:04:54.685Z,7.18
2023-01-26T04:07:45.131Z,7.57
2023-01-26T04:10:12.792Z,6.35
2023-01-26T04:12:41.014Z,8.70
2023-01-26T04:15:35.687Z,7.47
2023-01-26T04:18:26.511Z,8.70
2023-01-26T04:21:13.409Z,9.75
2023-01-26T04:23:43.369Z,8.73
2023-01-26T04:26:10.732Z,7.72
2023-01-26T04:28:38.461Z,7.45
2023-01-26T04:31:06.536Z,8.25
2023-01-26T04:33:36.458Z,8.23
2023-01-26T04:36:05.565Z,8.55
2023-01-26T04:38:33.218Z,8.13
2023-01-26T04:41:00.743Z,7.18
2023-01-26T04:43:29.741Z,6.80
2023-01-26T04:46:02.050Z,7.18
2023-01-26T04:51:00.234Z,7.85
2023-01-26T04:53:28.174Z,8.27
2023-01-26T04:55:55.976Z,9.05
2023-01-26T04:58:23.353Z,6.55
2023-01-26T05:00:55.813Z,8.60
2023-01-26T05:03:23.943Z,8.88
2023-01-26T05:05:53.321Z,6.78
2023-01-26T05:08:23.413Z,7.50
2023-01-26T05:10:52.367Z,6.43
2023-01-26T05:13:25.623Z,6.18
2023-01-26T05:16:14.110Z,8.70
2023-01-26T05:18:59.973Z,7.55
2023-01-26T05:21:47.450Z,6.40
2023-01-26T05:24:14.870Z,6.47
2023-01-26T05:26:42.108Z,8.55
2023-01-26T05:29:13.786Z,10.07
2023-01-26T05:31:41.384Z,6.43
2023-01-26T05:34:08.915Z,7.57
2023-01-26T05:36:37.799Z,6.07
2023-01-26T05:39:05.622Z,6.55
2023-01-26T05:41:33.155Z,7.07
2023-01-26T05:44:24.987Z,6.75
2023-01-26T05:46:57.913Z,5.88
2023-01-26T05:49:25.497Z,7.30
2023-01-26T05:51:54.392Z,7.38
2023-01-26T05:54:22.034Z,6.60
2023-01-26T05:56:50.099Z,6.97
2023-01-26T05:59:17.636Z,8.35
2023-01-26T06:01:44.996Z,6.80
2023-01-26T06:04:12.563Z,7.38
2023-01-26T06:06:46.233Z,6.53
2023-01-26T06:09:24.268Z,7.50
2023-01-26T06:12:18.335Z,6.95
2023-01-26T06:14:58.412Z,8.60
2023-01-26T06:17:39.039Z,8.38
2023-01-26T06:20:09.822Z,6.63
2023-01-26T06:22:37.585Z,6.95
2023-01-26T06:25:05.248Z,5.88
2023-01-26T06:27:32.548Z,6.25
2023-01-26T06:30:05.439Z,8.60
2023-01-26T06:32:33.162Z,7.13
2023-01-26T06:35:00.392Z,7.13
2023-01-26T06:37:27.883Z,7.70
2023-01-26T06:39:55.277Z,5.95
2023-01-26T06:42:23.759Z,6.03
2023-01-26T06:44:51.675Z,7.70
2023-01-26T06:47:18.985Z,6.57
2023-01-26T06:49:46.536Z,7.65
2023-01-26T06:52:23.456Z,6.22
2023-01-26T06:54:53.764Z,6.22
2023-01-26T06:57:23.674Z,7.03
2023-01-26T06:59:50.938Z,7.43
2023-01-26T07:02:33.456Z,6.80
2023-01-26T07:05:00.800Z,6.07
2023-01-26T07:07:28.107Z,5.95
2023-01-26T07:09:55.452Z,8.35
2023-01-26T07:12:22.731Z,6.65
2023-01-26T07:14:52.100Z,5.95
2023-01-26T07:17:19.333Z,6.10
2023-01-26T07:19:46.584Z,6.95
2023-01-26T07:22:14.958Z,6.65
2023-01-26T07:24:42.189Z,8.93
2023-01-26T07:27:09.469Z,5.97
2023-01-26T07:29:36.730Z,6.20
2023-01-26T07:32:04.100Z,5.32
2023-01-26T07:34:31.493Z,6.88
2023-01-26T07:36:58.734Z,6.15
2023-01-26T07:39:26.832Z,6.13
2023-01-26T07:41:54.294Z,7.30
2023-01-26T07:44:43.962Z,6.47
2023-01-26T07:47:11.461Z,7.50
2023-01-26T07:49:38.819Z,7.32
2023-01-26T07:52:06.730Z,7.72
2023-01-26T07:54:34.174Z,7.70
2023-01-26T07:57:01.542Z,8.18
2023-01-26T07:59:28.895Z,8.30
2023-01-26T08:01:56.247Z,7.88
2023-01-26T08:04:23.658Z,8.70
2023-01-26T08:06:53.751Z,12.68
2023-01-26T08:09:21.465Z,12.07
2023-01-26T08:11:48.700Z,12.95
2023-01-26T08:14:16.006Z,13.60
2023-01-26T08:16:45.467Z,16.27
2023-01-26T08:19:12.863Z,15.45
2023-01-26T08:21:40.134Z,13.18
2023-01-26T08:24:07.800Z,13.02
2023-01-26T08:26:35.192Z,13.80
2023-01-26T08:29:02.480Z,13.07
2023-01-26T08:31:30.181Z,17.00
2023-01-26T08:33:57.525Z,16.17
2023-01-26T08:36:25.517Z,13.18
2023-01-26T08:38:54.266Z,14.98
2023-01-26T08:41:21.595Z,14.60
2023-01-26T08:43:48.885Z,18.10
2023-01-26T08:46:17.234Z,14.20
2023-01-26T08:48:44.535Z,12.55
2023-01-26T08:51:11.870Z,16.15
2023-01-26T08:53:39.175Z,20.58
2023-01-26T08:56:08.948Z,15.63
2023-01-26T08:58:36.738Z,12.32
2023-01-26T09:01:08.839Z,12.88
2023-01-26T09:03:36.389Z,12.07
2023-01-26T09:06:05.656Z,12.70
2023-01-26T09:08:32.981Z,10.93
2023-01-26T09:11:01.018Z,15.60
2023-01-26T09:13:28.549Z,9.60
2023-01-26T09:15:55.808Z,12.65
2023-01-26T09:18:23.139Z,9.43
2023-01-26T09:20:51.331Z,8.90
2023-01-26T09:23:18.815Z,8.82
2023-01-26T09:25:46.280Z,8.25
2023-01-26T09:28:13.715Z,10.60
2023-01-26T09:30:41.191Z,8.23
2023-01-26T09:33:08.652Z,7.65
2023-01-26T09:35:35.916Z,8.10
2023-01-26T09:38:03.856Z,8.18
2023-01-26T09:40:46.390Z,8.13
2023-01-26T09:43:22.848Z,9.03
2023-01-26T09:46:11.905Z,7.60
2023-01-26T09:48:53.099Z,7.78
2023-01-26T09:51:29.373Z,8.60
2023-01-26T09:54:21.529Z,8.55
2023-01-26T09:56:48.805Z,8.00
2023-01-26T09:59:25.373Z,8.07
2023-01-26T10:02:15.875Z,7.20
2023-01-26T10:04:46.908Z,10.40
2023-01-26T10:07:15.742Z,10.18
2023-01-26T10:09:51.325Z,10.75
2023-01-26T10:12:24.564Z,7.93
2023-01-26T10:15:27.505Z,10.65
2023-01-26T10:17:56.528Z,8.57
2023-01-26T10:20:45.338Z,11.23
2023-01-26T10:23:16.969Z,12.35
2023-01-26T10:25:48.534Z,9.00
2023-01-26T10:28:19.312Z,10.38
2023-01-26T10:30:48.721Z,9.38
2023-01-26T10:33:27.512Z,9.13
2023-01-26T10:35:54.960Z,11.15
2023-01-26T10:38:34.410Z,8.05
2023-01-26T10:41:07.093Z,9.52
2023-01-26T10:43:41.981Z,11.85
2023-01-26T10:46:31.445Z,7.65
2023-01-26T10:49:20.156Z,6.63
2023-01-26T10:52:14.640Z,6.28
2023-01-26T10:54:43.945Z,10.65
2023-01-26T10:57:18.703Z,9.25
2023-01-26T10:59:54.832Z,12.40
2023-01-26T11:02:30.858Z,12.05
2023-01-26T11:05:20.361Z,12.35
2023-01-26T11:07:51.101Z,10.38
2023-01-26T11:10:30.426Z,6.53
2023-01-26T11:13:19.218Z,9.18
2023-01-26T11:15:49.318Z,7.93
2023-01-26T11:18:22.378Z,8.35
2023-01-26T11:20:59.594Z,9.90
2023-01-26T11:23:40.730Z,8.57
2023-01-26T11:26:35.553Z,7.30
2023-01-26T11:29:17.701Z,6.90
2023-01-26T11:32:02.973Z,6.75
2023-01-26T11:35:00.931Z,10.05
2023-01-26T11:37:47.815Z,6.50
2023-01-26T11:40:28.589Z,7.13
2023-01-26T11:43:08.536Z,8.40
2023-01-26T11:46:00.675Z,7.03
2023-01-26T11:48:28.818Z,9.32
2023-01-26T11:51:06.043Z,6.32
2023-01-26T11:54:02.189Z,8.35
2023-01-26T11:56:32.231Z,7.97
2023-01-26T11:59:06.406Z,6.95
2023-01-26T12:01:42.068Z,7.82
2023-01-26T12:04:19.919Z,7.38
2023-01-26T12:07:13.019Z,6.15
2023-01-26T12:09:46.379Z,7.53
2023-01-26T12:12:43.154Z,6.32
2023-01-26T12:15:15.936Z,7.72
2023-01-26T12:18:01.703Z,6.15
2023-01-26T12:20:37.699Z,8.13
2023-01-26T12:23:10.943Z,7.15
2023-01-26T12:25:41.966Z,5.93
2023-01-26T12:28:52.210Z,9.23
2023-01-26T12:31:34.262Z,7.25
2023-01-26T12:34:01.894Z,8.88
2023-01-26T12:36:42.795Z,9.90
2023-01-26T12:39:39.699Z,10.07
2023-01-26T12:42:21.311Z,11.77
2023-01-26T12:45:00.120Z,11.18
2023-01-26T12:47:44.739Z,11.15
2023-01-26T12:50:16.571Z,8.68
2023-01-26T12:52:53.517Z,14.52
2023-01-26T12:55:26.552Z,11.95
2023-01-26T12:57:56.110Z,13.45
2023-01-26T13:00:29.966Z,11.65
2023-01-26T13:03:02.413Z,10.00
2023-01-26T13:05:35.362Z,9.40
2023-01-26T13:08:41.208Z,8.27
2023-01-26T13:11:09.615Z,8.07
2023-01-26T13:13:57.332Z,8.20
2023-01-26T13:16:24.540Z,9.93
2023-01-26T13:18:56.873Z,9.88
2023-01-26T13:21:39.203Z,5.53
2023-01-26T13:24:18.485Z,6.90
2023-01-26T13:26:46.952Z,5.80
2023-01-26T13:29:27.304Z,7.00
2023-01-26T13:31:57.023Z,6.15
2023-01-26T13:34:47.678Z,8.05
2023-01-26T13:37:53.325Z,5.53
2023-01-26T13:40:31.078Z,6.95
2023-01-26T13:43:25.623Z,9.00
2023-01-26T13:46:05.588Z,6.88
2023-01-26T13:48:52.988Z,9.50
2023-01-26T13:51:22.379Z,11.10
2023-01-26T13:53:58.658Z,6.25
2023-01-26T13:56:30.440Z,6.35
2023-01-26T13:59:23.031Z,6.85
2023-01-26T14:01:55.791Z,7.80
2023-01-26T14:04:32.869Z,9.35
2023-01-26T14:07:08.734Z,8.32
2023-01-26T14:09:51.438Z,5.75
2023-01-26T14:12:23.911Z,7.38
2023-01-26T14:14:57.299Z,6.30
2023-01-26T14:17:30.765Z,7.32
2023-01-26T14:20:00.260Z,6.57
2023-01-26T14:22:29.285Z,9.63
2023-01-26T14:24:56.637Z,6.82
2023-01-26T14:27:31.086Z,9.35
2023-01-26T14:29:59.551Z,6.22
2023-01-26T14:32:29.626Z,5.93
2023-01-26T14:34:59.585Z,5.68
2023-01-26T14:37:28.356Z,6.50
2023-01-26T14:40:24.631Z,8.50
2023-01-26T14:42:53.997Z,7.57
2023-01-26T14:45:33.046Z,5.65
2023-01-26T14:48:05.391Z,6.43
2023-01-26T14:50:33.275Z,5.72
2023-01-26T14:53:02.272Z,5.90
2023-01-26T14:55:33.580Z,7.20
2023-01-26T14:58:03.971Z,5.65
2023-01-26T15:00:35.165Z,5.28
2023-01-26T15:03:12.700Z,5.40
2023-01-26T15:05:42.260Z,5.35
2023-01-26T15:08:26.298Z,6.47
2023-01-26T15:11:18.750Z,5.28
2023-01-26T15:13:53.679Z,5.97
2023-01-26T15:16:24.014Z,6.25
2023-01-26T15:19:00.149Z,5.07
2023-01-26T15:21:39.600Z,5.28
2023-01-26T15:24:14.083Z,6.13
2023-01-26T15:26:43.175Z,5.57
2023-01-26T15:29:33.183Z,7.85
2023-01-26T15:32:01.161Z,5.07
2023-01-26T15:34:40.458Z,5.75
2023-01-26T15:37:26.280Z,5.90
2023-01-26T15:39:53.506Z,5.55
2023-01-26T15:42:28.819Z,4.93
2023-01-26T15:44:56.301Z,6.93
2023-01-26T15:47:23.723Z,7.75
2023-01-26T15:49:51.109Z,6.88
2023-01-26T15:52:19.989Z,7.07
2023-01-26T15:54:47.329Z,6.15
2023-01-26T15:57:14.648Z,5.68
2023-01-26T15:59:41.885Z,8.27
2023-01-26T16:02:20.221Z,7.68
2023-01-26T16:04:47.824Z,5.75
2023-01-26T16:07:17.774Z,7.22
2023-01-26T16:09:45.359Z,7.38
2023-01-26T16:12:30.478Z,6.90
2023-01-26T16:14:58.545Z,5.18
2023-01-26T16:17:26.077Z,5.95
2023-01-26T16:19:53.350Z,5.65
2023-01-26T16:22:20.641Z,7.82
2023-01-26T16:24:47.847Z,6.82
2023-01-26T16:27:15.065Z,8.18
2023-01-26T16:29:42.289Z,6.32
2023-01-26T16:32:28.429Z,5.63
2023-01-26T16:34:55.721Z,6.15
2023-01-26T16:37:23.030Z,7.50
2023-01-26T16:39:50.280Z,7.88
2023-01-26T16:42:19.456Z,6.70
2023-01-26T16:44:47.720Z,6.05
2023-01-26T16:47:16.161Z,7.32
2023-01-26T16:49:43.459Z,6.32
2023-01-26T16:52:10.766Z,6.30
2023-01-26T16:54:38.142Z,9.48
2023-01-26T16:57:05.449Z,6.03
2023-01-26T16:59:32.720Z,6.32
2023-01-26T17:02:00.653Z,7.20
2023-01-26T17:04:28.068Z,7.13
2023-01-26T17:06:55.369Z,7.38
2023-01-26T17:09:23.825Z,8.13
2023-01-26T17:11:51.147Z,6.95
2023-01-26T17:14:18.447Z,7.55
2023-01-26T17:16:45.784Z,6.80
2023-01-26T17:19:13.084Z,7.97
2023-01-26T17:21:40.717Z,5.22
2023-01-26T17:24:08.196Z,9.18
2023-01-26T17:26:35.613Z,9.07
2023-01-26T17:29:03.004Z,7.38
2023-01-26T17:31:31.678Z,7.43
2023-01-26T17:33:59.071Z,6.20
2023-01-26T17:36:26.589Z,8.43
2023-01-26T17:38:53.957Z,5.55
2023-01-26T17:41:21.262Z,7.38
2023-01-26T17:43:48.625Z,6.85
2023-01-26T17:46:18.290Z,5.40
2023-01-26T17:48:47.263Z,6.55
2023-01-26T17:51:17.757Z,6.53
2023-01-26T17:53:47.608Z,7.93
2023-01-26T17:56:18.362Z,4.78
2023-01-26T17:58:53.917Z,7.53
2023-01-26T18:01:23.102Z,5.60
2023-01-26T18:03:50.919Z,5.28
2023-01-26T18:06:18.259Z,6.22
2023-01-26T18:08:45.774Z,7.47
2023-01-26T18:11:15.417Z,6.40
2023-01-26T18:13:43.081Z,4.95
2023-01-26T18:16:14.136Z,6.93
2023-01-26T18:18:42.359Z,7.47
2023-01-26T18:21:18.129Z,8.20
2023-01-26T18:23:47.322Z,5.78
2023-01-26T18:26:16.012Z,5.43
2023-01-26T18:28:44.206Z,7.65
2023-01-26T18:31:17.587Z,6.85
2023-01-26T18:33:45.585Z,11.98
2023-01-26T18:36:15.099Z,8.25
2023-01-26T18:38:47.765Z,6.50
2023-01-26T18:41:17.099Z,9.23
2023-01-26T18:43:45.243Z,5.82
2023-01-26T18:46:12.619Z,7.07
2023-01-26T18:48:39.920Z,7.32
2023-01-26T18:51:08.729Z,7.03
2023-01-26T18:53:38.773Z,6.72
2023-01-26T18:56:11.404Z,6.35
2023-01-26T18:58:39.782Z,8.48
2023-01-26T19:01:10.446Z,8.90
2023-01-26T19:03:41.709Z,7.38
2023-01-26T19:06:09.965Z,7.18
2023-01-26T19:08:37.329Z,7.05
2023-01-26T19:11:08.067Z,11.32
2023-01-26T19:13:35.934Z,9.55
2023-01-26T19:16:03.531Z,12.07
2023-01-26T19:18:30.809Z,7.72
2023-01-26T19:20:59.881Z,6.90
2023-01-26T19:23:27.956Z,7.57
2023-01-26T19:25:56.089Z,7.40
2023-01-26T19:28:23.939Z,8.20
2023-01-26T19:30:51.299Z,8.48
2023-01-26T19:33:24.481Z,9.02
2023-01-26T19:38:20.158Z,9.60
2023-01-26T19:40:49.239Z,9.95
2023-01-26T19:43:18.977Z,13.35
2023-01-26T19:45:52.985Z,11.13
2023-01-26T19:48:26.681Z,20.08
2023-01-26T19:51:06.331Z,16.92
2023-01-26T19:53:35.587Z,18.52
2023-01-26T19:56:23.171Z,21.27
2023-01-26T19:58:58.062Z,21.17
2023-01-26T20:01:27.324Z,22.67
2023-01-26T20:03:59.040Z,21.80
2023-01-26T20:06:29.699Z,21.38
2023-01-26T20:08:57.176Z,24.17
2023-01-26T20:11:25.262Z,17.95
2023-01-26T20:14:08.522Z,18.98
2023-01-26T20:19:03.961Z,23.80
2023-01-26T20:21:31.737Z,20.20
2023-01-26T20:24:05.218Z,23.00
2023-01-26T20:26:34.759Z,19.85
2023-01-26T20:29:03.287Z,16.10
2023-01-26T20:31:32.595Z,18.42
2023-01-26T20:34:01.795Z,16.92
2023-01-26T20:36:29.777Z,19.75
2023-01-26T20:38:57.469Z,19.00
2023-01-26T20:41:28.102Z,15.90
2023-01-26T20:44:00.447Z,17.73
2023-01-26T20:46:31.599Z,19.05
2023-01-26T20:49:02.220Z,15.43
2023-01-26T20:51:33.896Z,16.75
2023-01-26T20:54:02.363Z,15.43
2023-01-26T20:56:30.879Z,15.48
2023-01-26T20:58:58.530Z,14.32
2023-01-26T21:01:26.316Z,16.45
2023-01-26T21:03:54.032Z,15.00
2023-01-26T21:06:22.418Z,17.90
2023-01-26T21:08:53.135Z,17.25
2023-01-26T21:11:22.631Z,20.50
2023-01-26T21:13:51.867Z,20.08
2023-01-26T21:16:19.421Z,15.35
2023-01-26T21:18:46.904Z,20.75
2023-01-26T21:21:19.344Z,14.60
2023-01-26T21:23:46.869Z,17.98
2023-01-26T21:26:23.287Z,15.38
2023-01-26T21:28:52.757Z,16.95
2023-01-26T21:31:21.630Z,18.05
2023-01-26T21:33:49.880Z,17.02
2023-01-26T21:36:30.803Z,13.20
2023-01-26T21:38:59.794Z,13.73
2023-01-26T21:41:47.802Z,14.80
2023-01-26T21:44:18.128Z,13.68
2023-01-26T21:46:46.894Z,15.80
2023-01-26T21:49:14.976Z,15.57
2023-01-26T21:52:01.390Z,17.27
2023-01-26T21:54:29.968Z,15.73
2023-01-26T21:56:58.536Z,15.13
2023-01-26T21:59:26.152Z,12.13
2023-01-26T22:01:55.844Z,14.13
2023-01-26T22:04:30.404Z,15.43
2023-01-26T22:06:58.194Z,12.15
2023-01-26T22:09:25.781Z,13.88
2023-01-26T22:11:53.040Z,14.77
2023-01-26T22:14:23.111Z,11.75
2023-01-26T22:16:50.809Z,12.45
2023-01-26T22:19:18.388Z,14.23
2023-01-26T22:21:45.716Z,13.10
2023-01-26T22:24:14.458Z,12.63
2023-01-26T22:26:42.206Z,11.23
2023-01-26T22:29:11.705Z,11.13
2023-01-26T22:31:39.557Z,15.05
2023-01-26T22:34:06.996Z,15.75
2023-01-26T22:36:34.427Z,11.00
2023-01-26T22:39:01.821Z,10.55
2023-01-26T22:41:30.466Z,11.23
2023-01-26T22:43:59.979Z,10.75
2023-01-26T22:46:29.884Z,11.15
2023-01-26T22:48:58.883Z,10.25
2023-01-26T22:51:29.428Z,13.80
2023-01-26T22:53:58.201Z,12.60
2023-01-26T22:56:26.569Z,10.85
2023-01-26T22:58:59.101Z,9.38
2023-01-26T23:01:32.441Z,10.80
2023-01-26T23:04:01.318Z,16.73
2023-01-26T23:06:29.005Z,11.80
2023-01-26T23:08:58.095Z,13.52
2023-01-26T23:11:28.094Z,11.25
2023-01-26T23:13:57.043Z,9.35
2023-01-26T23:16:25.622Z,10.10
2023-01-26T23:18:55.442Z,9.93
2023-01-26T23:21:23.949Z,11.25
2023-01-26T23:23:51.514Z,12.80
2023-01-26T23:26:18.987Z,10.95
2023-01-26T23:28:46.798Z,9.57
2023-01-26T23:31:16.809Z,10.75
2023-01-26T23:33:44.617Z,10.45
2023-01-26T23:36:13.505Z,10.27
2023-01-26T23:38:41.024Z,9.50
2023-01-26T23:41:12.063Z,10.88
2023-01-26T23:43:39.947Z,13.07
2023-01-26T23:46:08.437Z,9.13
2023-01-26T23:48:35.757Z,12.73
2023-01-26T23:51:06.022Z,9.68
2023-01-26T23:53:33.593Z,11.27
2023-01-26T23:56:04.993Z,10.32
2023-01-26T23:58:32.348Z,8.73
